sensor_id;sensor_type;location;lat;lon;timestamp;P1;durP1;ratioP1;P2;durP2;ratioP2
80823;SDS011;70228;59.128;37.936;2023-05-29T00:00:28;8.15;;;1.80;;
80823;SDS011;70228;59.128;37.936;2023-05-29T00:02:54;8.10;;;2.20;;
80823;SDS011;70228;59.128;37.936;2023-05-29T00:05:20;11.83;;;2.43;;
80823;SDS011;70228;59.128;37.936;2023-05-29T00:07:47;9.65;;;1.95;;
80823;SDS011;70228;59.128;37.936;2023-05-29T00:10:14;8.77;;;1.63;;
80823;SDS011;70228;59.128;37.936;2023-05-29T00:12:41;16.48;;;3.92;;
80823;SDS011;70228;59.128;37.936;2023-05-29T00:15:08;16.75;;;4.00;;
80823;SDS011;70228;59.128;37.936;2023-05-29T00:17:36;11.87;;;3.27;;
80823;SDS011;70228;59.128;37.936;2023-05-29T00:20:02;16.70;;;4.15;;
80823;SDS011;70228;59.128;37.936;2023-05-29T00:22:32;19.08;;;4.63;;
80823;SDS011;70228;59.128;37.936;2023-05-29T00:24:58;29.65;;;6.32;;
80823;SDS011;70228;59.128;37.936;2023-05-29T00:27:28;31.02;;;7.60;;
80823;SDS011;70228;59.128;37.936;2023-05-29T00:29:55;26.67;;;7.50;;
80823;SDS011;70228;59.128;37.936;2023-05-29T00:32:21;30.58;;;7.32;;
80823;SDS011;70228;59.128;37.936;2023-05-29T00:34:47;27.70;;;7.53;;
80823;SDS011;70228;59.128;37.936;2023-05-29T00:37:13;29.60;;;7.18;;
80823;SDS011;70228;59.128;37.936;2023-05-29T00:39:39;32.92;;;7.13;;
80823;SDS011;70228;59.128;37.936;2023-05-29T00:42:05;26.13;;;7.73;;
80823;SDS011;70228;59.128;37.936;2023-05-29T00:44:32;27.90;;;7.68;;
80823;SDS011;70228;59.128;37.936;2023-05-29T00:46:58;31.25;;;7.15;;
80823;SDS011;70228;59.128;37.936;2023-05-29T00:49:25;37.50;;;8.18;;
80823;SDS011;70228;59.128;37.936;2023-05-29T00:51:52;44.08;;;10.88;;
80823;SDS011;70228;59.128;37.936;2023-05-29T00:54:26;58.57;;;14.07;;
80823;SDS011;70228;59.128;37.936;2023-05-29T00:56:54;78.03;;;18.55;;
80823;SDS011;70228;59.128;37.936;2023-05-29T00:59:22;84.30;;;17.73;;
80823;SDS011;70228;59.128;37.936;2023-05-29T01:01:50;71.60;;;18.17;;
80823;SDS011;70228;59.128;37.936;2023-05-29T01:04:17;112.78;;;26.33;;
80823;SDS011;70228;59.128;37.936;2023-05-29T01:06:46;120.80;;;26.47;;
80823;SDS011;70228;59.128;37.936;2023-05-29T01:09:12;121.28;;;26.77;;
80823;SDS011;70228;59.128;37.936;2023-05-29T01:11:49;107.00;;;24.92;;
80823;SDS011;70228;59.128;37.936;2023-05-29T01:14:23;107.32;;;27.27;;
80823;SDS011;70228;59.128;37.936;2023-05-29T01:17:03;96.18;;;22.73;;
80823;SDS011;70228;59.128;37.936;2023-05-29T01:25:16;85.10;;;20.35;;
80823;SDS011;70228;59.128;37.936;2023-05-29T01:27:47;66.93;;;15.45;;
80823;SDS011;70228;59.128;37.936;2023-05-29T01:30:14;79.53;;;21.33;;
80823;SDS011;70228;59.128;37.936;2023-05-29T01:32:44;73.67;;;19.17;;
80823;SDS011;70228;59.128;37.936;2023-05-29T01:35:10;46.50;;;12.38;;
80823;SDS011;70228;59.128;37.936;2023-05-29T01:37:36;59.88;;;14.52;;
80823;SDS011;70228;59.128;37.936;2023-05-29T01:40:03;57.35;;;13.93;;
80823;SDS011;70228;59.128;37.936;2023-05-29T01:42:30;65.50;;;16.25;;
80823;SDS011;70228;59.128;37.936;2023-05-29T01:44:56;55.10;;;13.00;;
80823;SDS011;70228;59.128;37.936;2023-05-29T01:47:23;49.63;;;12.30;;
80823;SDS011;70228;59.128;37.936;2023-05-29T01:49:51;64.30;;;14.90;;
80823;SDS011;70228;59.128;37.936;2023-05-29T01:52:18;58.50;;;15.32;;
80823;SDS011;70228;59.128;37.936;2023-05-29T01:54:44;46.33;;;12.10;;
80823;SDS011;70228;59.128;37.936;2023-05-29T01:57:10;61.87;;;15.53;;
80823;SDS011;70228;59.128;37.936;2023-05-29T01:59:37;54.78;;;14.70;;
80823;SDS011;70228;59.128;37.936;2023-05-29T02:02:06;58.80;;;15.38;;
80823;SDS011;70228;59.128;37.936;2023-05-29T02:04:33;52.38;;;14.63;;
80823;SDS011;70228;59.128;37.936;2023-05-29T02:07:00;57.53;;;14.15;;
80823;SDS011;70228;59.128;37.936;2023-05-29T02:09:26;50.57;;;13.20;;
80823;SDS011;70228;59.128;37.936;2023-05-29T02:11:52;54.10;;;14.90;;
80823;SDS011;70228;59.128;37.936;2023-05-29T02:14:18;42.25;;;12.68;;
80823;SDS011;70228;59.128;37.936;2023-05-29T02:16:44;48.85;;;13.40;;
80823;SDS011;70228;59.128;37.936;2023-05-29T02:19:11;48.97;;;14.13;;
80823;SDS011;70228;59.128;37.936;2023-05-29T02:21:40;49.50;;;12.53;;
80823;SDS011;70228;59.128;37.936;2023-05-29T02:24:06;47.13;;;12.02;;
80823;SDS011;70228;59.128;37.936;2023-05-29T02:26:32;48.20;;;11.80;;
80823;SDS011;70228;59.128;37.936;2023-05-29T02:28:59;41.80;;;12.13;;
80823;SDS011;70228;59.128;37.936;2023-05-29T02:31:26;43.42;;;11.70;;
80823;SDS011;70228;59.128;37.936;2023-05-29T02:33:52;36.43;;;10.73;;
80823;SDS011;70228;59.128;37.936;2023-05-29T02:36:18;41.10;;;11.30;;
80823;SDS011;70228;59.128;37.936;2023-05-29T02:38:44;40.33;;;11.50;;
80823;SDS011;70228;59.128;37.936;2023-05-29T02:41:10;37.58;;;10.15;;
80823;SDS011;70228;59.128;37.936;2023-05-29T02:43:36;38.60;;;10.23;;
80823;SDS011;70228;59.128;37.936;2023-05-29T02:46:03;38.33;;;10.07;;
80823;SDS011;70228;59.128;37.936;2023-05-29T02:48:29;41.38;;;9.80;;
80823;SDS011;70228;59.128;37.936;2023-05-29T02:50:55;34.08;;;8.18;;
80823;SDS011;70228;59.128;37.936;2023-05-29T02:53:21;35.58;;;8.05;;
80823;SDS011;70228;59.128;37.936;2023-05-29T02:55:48;31.65;;;8.05;;
80823;SDS011;70228;59.128;37.936;2023-05-29T02:58:15;38.97;;;8.43;;
80823;SDS011;70228;59.128;37.936;2023-05-29T03:00:42;34.08;;;8.02;;
80823;SDS011;70228;59.128;37.936;2023-05-29T03:03:08;28.63;;;8.70;;
80823;SDS011;70228;59.128;37.936;2023-05-29T03:05:35;38.95;;;8.98;;
80823;SDS011;70228;59.128;37.936;2023-05-29T03:08:01;37.15;;;9.18;;
80823;SDS011;70228;59.128;37.936;2023-05-29T03:10:28;34.93;;;8.97;;
80823;SDS011;70228;59.128;37.936;2023-05-29T03:12:54;31.00;;;8.80;;
80823;SDS011;70228;59.128;37.936;2023-05-29T03:15:21;34.20;;;9.00;;
80823;SDS011;70228;59.128;37.936;2023-05-29T03:17:47;33.55;;;8.68;;
80823;SDS011;70228;59.128;37.936;2023-05-29T03:20:13;23.70;;;8.38;;
80823;SDS011;70228;59.128;37.936;2023-05-29T03:22:41;23.80;;;7.90;;
80823;SDS011;70228;59.128;37.936;2023-05-29T03:25:07;27.52;;;7.78;;
80823;SDS011;70228;59.128;37.936;2023-05-29T03:27:33;28.75;;;6.55;;
80823;SDS011;70228;59.128;37.936;2023-05-29T03:30:00;24.67;;;6.32;;
80823;SDS011;70228;59.128;37.936;2023-05-29T03:32:26;21.38;;;6.80;;
80823;SDS011;70228;59.128;37.936;2023-05-29T03:34:52;21.97;;;6.43;;
80823;SDS011;70228;59.128;37.936;2023-05-29T03:37:19;26.73;;;6.63;;
80823;SDS011;70228;59.128;37.936;2023-05-29T03:39:45;20.50;;;5.68;;
80823;SDS011;70228;59.128;37.936;2023-05-29T03:42:11;20.73;;;6.30;;
80823;SDS011;70228;59.128;37.936;2023-05-29T03:44:38;25.02;;;7.03;;
80823;SDS011;70228;59.128;37.936;2023-05-29T03:47:05;21.27;;;6.80;;
80823;SDS011;70228;59.128;37.936;2023-05-29T03:49:31;23.73;;;6.97;;
80823;SDS011;70228;59.128;37.936;2023-05-29T03:51:57;17.13;;;5.32;;
80823;SDS011;70228;59.128;37.936;2023-05-29T03:54:23;14.50;;;4.68;;
80823;SDS011;70228;59.128;37.936;2023-05-29T03:56:50;16.95;;;4.63;;
80823;SDS011;70228;59.128;37.936;2023-05-29T03:59:16;19.67;;;4.90;;
80823;SDS011;70228;59.128;37.936;2023-05-29T04:01:42;22.05;;;5.20;;
80823;SDS011;70228;59.128;37.936;2023-05-29T04:04:08;20.17;;;5.05;;
80823;SDS011;70228;59.128;37.936;2023-05-29T04:06:35;16.23;;;3.67;;
80823;SDS011;70228;59.128;37.936;2023-05-29T04:09:07;11.77;;;3.53;;
80823;SDS011;70228;59.128;37.936;2023-05-29T04:11:34;14.27;;;3.17;;
80823;SDS011;70228;59.128;37.936;2023-05-29T04:14:00;10.25;;;2.88;;
80823;SDS011;70228;59.128;37.936;2023-05-29T04:16:27;9.43;;;2.60;;
80823;SDS011;70228;59.128;37.936;2023-05-29T04:18:54;156.43;;;105.80;;
80823;SDS011;70228;59.128;37.936;2023-05-29T04:21:21;22.02;;;8.75;;
80823;SDS011;70228;59.128;37.936;2023-05-29T04:23:47;11.63;;;2.90;;
80823;SDS011;70228;59.128;37.936;2023-05-29T04:26:13;10.60;;;2.47;;
80823;SDS011;70228;59.128;37.936;2023-05-29T04:28:40;12.63;;;2.63;;
80823;SDS011;70228;59.128;37.936;2023-05-29T04:31:08;9.90;;;2.50;;
80823;SDS011;70228;59.128;37.936;2023-05-29T04:33:34;8.20;;;2.88;;
80823;SDS011;70228;59.128;37.936;2023-05-29T04:36:02;8.67;;;2.17;;
80823;SDS011;70228;59.128;37.936;2023-05-29T04:38:29;8.77;;;2.15;;
80823;SDS011;70228;59.128;37.936;2023-05-29T04:40:56;6.22;;;2.08;;
80823;SDS011;70228;59.128;37.936;2023-05-29T04:43:24;6.10;;;2.10;;
80823;SDS011;70228;59.128;37.936;2023-05-29T04:45:54;9.38;;;2.03;;
80823;SDS011;70228;59.128;37.936;2023-05-29T04:48:20;6.67;;;1.90;;
80823;SDS011;70228;59.128;37.936;2023-05-29T04:50:47;8.48;;;1.98;;
80823;SDS011;70228;59.128;37.936;2023-05-29T04:53:14;6.78;;;1.65;;
80823;SDS011;70228;59.128;37.936;2023-05-29T04:55:41;6.80;;;2.00;;
80823;SDS011;70228;59.128;37.936;2023-05-29T04:58:07;6.60;;;1.70;;
80823;SDS011;70228;59.128;37.936;2023-05-29T05:00:33;6.13;;;1.60;;
80823;SDS011;70228;59.128;37.936;2023-05-29T05:03:00;4.68;;;1.63;;
80823;SDS011;70228;59.128;37.936;2023-05-29T05:05:26;6.53;;;1.40;;
80823;SDS011;70228;59.128;37.936;2023-05-29T05:07:52;7.47;;;1.90;;
80823;SDS011;70228;59.128;37.936;2023-05-29T05:10:18;5.55;;;1.60;;
80823;SDS011;70228;59.128;37.936;2023-05-29T05:12:44;7.73;;;1.60;;
80823;SDS011;70228;59.128;37.936;2023-05-29T05:15:10;5.32;;;1.38;;
80823;SDS011;70228;59.128;37.936;2023-05-29T05:17:40;6.07;;;1.50;;
80823;SDS011;70228;59.128;37.936;2023-05-29T05:20:06;5.05;;;1.38;;
80823;SDS011;70228;59.128;37.936;2023-05-29T05:22:34;8.07;;;1.25;;
80823;SDS011;70228;59.128;37.936;2023-05-29T05:25:00;4.60;;;1.10;;
80823;SDS011;70228;59.128;37.936;2023-05-29T05:27:27;6.18;;;1.20;;
80823;SDS011;70228;59.128;37.936;2023-05-29T05:29:53;6.95;;;1.23;;
80823;SDS011;70228;59.128;37.936;2023-05-29T05:32:19;5.55;;;1.13;;
80823;SDS011;70228;59.128;37.936;2023-05-29T05:34:45;4.50;;;1.20;;
80823;SDS011;70228;59.128;37.936;2023-05-29T05:37:11;6.43;;;1.60;;
80823;SDS011;70228;59.128;37.936;2023-05-29T05:39:38;4.45;;;1.30;;
80823;SDS011;70228;59.128;37.936;2023-05-29T05:42:04;5.25;;;1.40;;
80823;SDS011;70228;59.128;37.936;2023-05-29T05:44:31;4.32;;;1.10;;
80823;SDS011;70228;59.128;37.936;2023-05-29T05:46:57;5.07;;;1.10;;
80823;SDS011;70228;59.128;37.936;2023-05-29T05:49:23;8.07;;;1.30;;
80823;SDS011;70228;59.128;37.936;2023-05-29T05:51:49;3.33;;;1.00;;
80823;SDS011;70228;59.128;37.936;2023-05-29T05:54:16;5.72;;;1.20;;
80823;SDS011;70228;59.128;37.936;2023-05-29T05:56:42;4.72;;;0.98;;
80823;SDS011;70228;59.128;37.936;2023-05-29T05:59:15;5.05;;;1.05;;
80823;SDS011;70228;59.128;37.936;2023-05-29T06:01:42;6.13;;;1.00;;
80823;SDS011;70228;59.128;37.936;2023-05-29T06:04:08;4.40;;;1.10;;
80823;SDS011;70228;59.128;37.936;2023-05-29T06:06:34;4.07;;;1.00;;
80823;SDS011;70228;59.128;37.936;2023-05-29T06:09:01;5.30;;;1.10;;
80823;SDS011;70228;59.128;37.936;2023-05-29T06:11:30;4.63;;;1.00;;
80823;SDS011;70228;59.128;37.936;2023-05-29T06:13:57;5.50;;;0.90;;
80823;SDS011;70228;59.128;37.936;2023-05-29T06:16:23;5.20;;;1.00;;
80823;SDS011;70228;59.128;37.936;2023-05-29T06:18:50;9.90;;;1.38;;
80823;SDS011;70228;59.128;37.936;2023-05-29T06:21:16;4.47;;;1.10;;
80823;SDS011;70228;59.128;37.936;2023-05-29T06:23:42;7.88;;;1.25;;
80823;SDS011;70228;59.128;37.936;2023-05-29T06:26:09;4.53;;;1.10;;
80823;SDS011;70228;59.128;37.936;2023-05-29T06:28:35;10.32;;;1.30;;
80823;SDS011;70228;59.128;37.936;2023-05-29T06:31:02;6.22;;;1.38;;
80823;SDS011;70228;59.128;37.936;2023-05-29T06:33:28;6.05;;;1.02;;
80823;SDS011;70228;59.128;37.936;2023-05-29T06:35:55;5.53;;;1.10;;
80823;SDS011;70228;59.128;37.936;2023-05-29T06:38:21;5.17;;;0.90;;
80823;SDS011;70228;59.128;37.936;2023-05-29T06:40:59;4.30;;;0.90;;
80823;SDS011;70228;59.128;37.936;2023-05-29T06:43:27;5.15;;;1.10;;
80823;SDS011;70228;59.128;37.936;2023-05-29T06:45:54;4.70;;;1.05;;
80823;SDS011;70228;59.128;37.936;2023-05-29T06:48:20;7.82;;;1.08;;
80823;SDS011;70228;59.128;37.936;2023-05-29T06:50:47;5.37;;;1.00;;
80823;SDS011;70228;59.128;37.936;2023-05-29T06:53:13;10.70;;;1.50;;
80823;SDS011;70228;59.128;37.936;2023-05-29T06:55:39;10.05;;;1.30;;
80823;SDS011;70228;59.128;37.936;2023-05-29T06:58:06;10.55;;;2.55;;
80823;SDS011;70228;59.128;37.936;2023-05-29T07:00:32;5.72;;;1.50;;
80823;SDS011;70228;59.128;37.936;2023-05-29T07:02:58;6.13;;;1.27;;
80823;SDS011;70228;59.128;37.936;2023-05-29T07:05:26;6.70;;;1.10;;
80823;SDS011;70228;59.128;37.936;2023-05-29T07:07:52;5.03;;;1.10;;
80823;SDS011;70228;59.128;37.936;2023-05-29T07:10:18;7.65;;;1.38;;
80823;SDS011;70228;59.128;37.936;2023-05-29T07:12:44;4.50;;;1.02;;
80823;SDS011;70228;59.128;37.936;2023-05-29T07:15:10;4.77;;;1.07;;
80823;SDS011;70228;59.128;37.936;2023-05-29T07:17:36;4.35;;;1.05;;
80823;SDS011;70228;59.128;37.936;2023-05-29T07:20:02;5.57;;;1.00;;
80823;SDS011;70228;59.128;37.936;2023-05-29T07:22:30;5.60;;;1.15;;
80823;SDS011;70228;59.128;37.936;2023-05-29T07:24:56;6.73;;;1.40;;
80823;SDS011;70228;59.128;37.936;2023-05-29T07:27:22;6.47;;;1.33;;
80823;SDS011;70228;59.128;37.936;2023-05-29T07:29:48;6.20;;;1.23;;
80823;SDS011;70228;59.128;37.936;2023-05-29T07:32:14;4.75;;;1.17;;
80823;SDS011;70228;59.128;37.936;2023-05-29T07:34:41;8.90;;;1.30;;
80823;SDS011;70228;59.128;37.936;2023-05-29T07:37:07;5.70;;;1.10;;
80823;SDS011;70228;59.128;37.936;2023-05-29T07:39:34;4.55;;;1.10;;
80823;SDS011;70228;59.128;37.936;2023-05-29T07:42:02;3.65;;;1.00;;
80823;SDS011;70228;59.128;37.936;2023-05-29T07:44:29;4.65;;;1.45;;
80823;SDS011;70228;59.128;37.936;2023-05-29T07:46:55;5.13;;;1.30;;
80823;SDS011;70228;59.128;37.936;2023-05-29T07:49:21;5.85;;;1.30;;
80823;SDS011;70228;59.128;37.936;2023-05-29T07:51:49;6.07;;;1.20;;
80823;SDS011;70228;59.128;37.936;2023-05-29T07:54:15;6.03;;;1.00;;
80823;SDS011;70228;59.128;37.936;2023-05-29T07:56:46;5.25;;;1.38;;
80823;SDS011;70228;59.128;37.936;2023-05-29T07:59:12;5.67;;;1.00;;
80823;SDS011;70228;59.128;37.936;2023-05-29T08:01:38;5.32;;;0.98;;
80823;SDS011;70228;59.128;37.936;2023-05-29T08:04:06;4.07;;;1.10;;
80823;SDS011;70228;59.128;37.936;2023-05-29T08:06:32;4.50;;;0.90;;
80823;SDS011;70228;59.128;37.936;2023-05-29T08:08:59;5.95;;;1.10;;
80823;SDS011;70228;59.128;37.936;2023-05-29T08:11:25;7.17;;;1.20;;
80823;SDS011;70228;59.128;37.936;2023-05-29T08:13:51;4.57;;;1.10;;
80823;SDS011;70228;59.128;37.936;2023-05-29T08:16:17;4.65;;;1.30;;
80823;SDS011;70228;59.128;37.936;2023-05-29T08:18:43;7.57;;;1.25;;
80823;SDS011;70228;59.128;37.936;2023-05-29T08:21:10;4.83;;;1.33;;
80823;SDS011;70228;59.128;37.936;2023-05-29T08:23:37;4.07;;;1.10;;
80823;SDS011;70228;59.128;37.936;2023-05-29T08:26:03;5.00;;;1.02;;
80823;SDS011;70228;59.128;37.936;2023-05-29T08:28:30;5.10;;;1.02;;
80823;SDS011;70228;59.128;37.936;2023-05-29T08:30:56;5.80;;;1.40;;
80823;SDS011;70228;59.128;37.936;2023-05-29T08:33:23;5.07;;;1.27;;
80823;SDS011;70228;59.128;37.936;2023-05-29T08:35:50;4.20;;;1.20;;
80823;SDS011;70228;59.128;37.936;2023-05-29T08:38:16;12.45;;;1.42;;
80823;SDS011;70228;59.128;37.936;2023-05-29T08:40:42;4.32;;;1.40;;
80823;SDS011;70228;59.128;37.936;2023-05-29T08:43:20;5.20;;;1.27;;
80823;SDS011;70228;59.128;37.936;2023-05-29T08:45:47;4.40;;;1.10;;
80823;SDS011;70228;59.128;37.936;2023-05-29T08:48:16;5.82;;;1.45;;
80823;SDS011;70228;59.128;37.936;2023-05-29T08:50:44;4.50;;;1.20;;
80823;SDS011;70228;59.128;37.936;2023-05-29T08:53:14;26.83;;;1.50;;
80823;SDS011;70228;59.128;37.936;2023-05-29T08:55:44;6.93;;;1.27;;
80823;SDS011;70228;59.128;37.936;2023-05-29T08:58:13;4.30;;;1.10;;
80823;SDS011;70228;59.128;37.936;2023-05-29T09:00:40;7.38;;;1.20;;
80823;SDS011;70228;59.128;37.936;2023-05-29T09:03:06;4.85;;;1.20;;
80823;SDS011;70228;59.128;37.936;2023-05-29T09:05:33;5.85;;;1.30;;
80823;SDS011;70228;59.128;37.936;2023-05-29T09:07:59;5.85;;;1.23;;
80823;SDS011;70228;59.128;37.936;2023-05-29T09:10:25;5.17;;;1.10;;
80823;SDS011;70228;59.128;37.936;2023-05-29T09:12:51;4.05;;;1.25;;
80823;SDS011;70228;59.128;37.936;2023-05-29T09:15:18;6.47;;;1.20;;
80823;SDS011;70228;59.128;37.936;2023-05-29T09:17:52;5.45;;;1.48;;
80823;SDS011;70228;59.128;37.936;2023-05-29T09:20:20;5.13;;;1.27;;
80823;SDS011;70228;59.128;37.936;2023-05-29T09:25:23;5.63;;;1.15;;
80823;SDS011;70228;59.128;37.936;2023-05-29T09:27:54;4.10;;;1.20;;
80823;SDS011;70228;59.128;37.936;2023-05-29T09:30:39;5.32;;;1.35;;
80823;SDS011;70228;59.128;37.936;2023-05-29T09:33:10;4.13;;;1.00;;
80823;SDS011;70228;59.128;37.936;2023-05-29T09:38:06;5.75;;;1.02;;
80823;SDS011;70228;59.128;37.936;2023-05-29T09:40:34;5.05;;;1.10;;
80823;SDS011;70228;59.128;37.936;2023-05-29T09:43:05;6.43;;;1.20;;
80823;SDS011;70228;59.128;37.936;2023-05-29T09:45:42;8.45;;;1.23;;
80823;SDS011;70228;59.128;37.936;2023-05-29T09:48:14;4.90;;;1.03;;
80823;SDS011;70228;59.128;37.936;2023-05-29T09:50:42;5.05;;;1.85;;
80823;SDS011;70228;59.128;37.936;2023-05-29T09:53:20;4.45;;;1.30;;
80823;SDS011;70228;59.128;37.936;2023-05-29T09:55:50;4.25;;;1.10;;
80823;SDS011;70228;59.128;37.936;2023-05-29T09:58:17;5.43;;;1.42;;
80823;SDS011;70228;59.128;37.936;2023-05-29T10:00:44;5.57;;;1.40;;
80823;SDS011;70228;59.128;37.936;2023-05-29T10:03:12;5.30;;;1.25;;
80823;SDS011;70228;59.128;37.936;2023-05-29T10:05:39;4.65;;;1.10;;
80823;SDS011;70228;59.128;37.936;2023-05-29T10:08:11;6.38;;;1.30;;
80823;SDS011;70228;59.128;37.936;2023-05-29T10:10:43;9.88;;;1.35;;
80823;SDS011;70228;59.128;37.936;2023-05-29T10:13:13;4.97;;;1.20;;
80823;SDS011;70228;59.128;37.936;2023-05-29T10:15:41;5.93;;;1.40;;
80823;SDS011;70228;59.128;37.936;2023-05-29T10:18:12;7.90;;;1.30;;
80823;SDS011;70228;59.128;37.936;2023-05-29T10:20:47;5.15;;;1.48;;
80823;SDS011;70228;59.128;37.936;2023-05-29T10:23:21;6.85;;;1.40;;
80823;SDS011;70228;59.128;37.936;2023-05-29T10:25:50;6.00;;;1.60;;
80823;SDS011;70228;59.128;37.936;2023-05-29T10:28:22;5.70;;;1.60;;
80823;SDS011;70228;59.128;37.936;2023-05-29T10:30:52;5.78;;;1.30;;
80823;SDS011;70228;59.128;37.936;2023-05-29T10:38:40;13.10;;;1.63;;
80823;SDS011;70228;59.128;37.936;2023-05-29T10:43:57;8.52;;;1.30;;
80823;SDS011;70228;59.128;37.936;2023-05-29T10:49:16;5.43;;;1.40;;
80823;SDS011;70228;59.128;37.936;2023-05-29T10:51:43;4.80;;;1.40;;
80823;SDS011;70228;59.128;37.936;2023-05-29T10:54:10;5.90;;;1.88;;
80823;SDS011;70228;59.128;37.936;2023-05-29T10:56:36;4.53;;;1.23;;
80823;SDS011;70228;59.128;37.936;2023-05-29T10:59:02;6.05;;;1.30;;
80823;SDS011;70228;59.128;37.936;2023-05-29T11:01:29;4.70;;;1.10;;
80823;SDS011;70228;59.128;37.936;2023-05-29T11:06:43;5.45;;;1.20;;
80823;SDS011;70228;59.128;37.936;2023-05-29T11:15:05;7.65;;;1.55;;
80823;SDS011;70228;59.128;37.936;2023-05-29T11:17:42;6.10;;;1.47;;
80823;SDS011;70228;59.128;37.936;2023-05-29T11:20:17;6.68;;;1.50;;
80823;SDS011;70228;59.128;37.936;2023-05-29T11:25:25;4.43;;;1.20;;
80823;SDS011;70228;59.128;37.936;2023-05-29T11:27:52;6.80;;;1.30;;
80823;SDS011;70228;59.128;37.936;2023-05-29T11:30:19;6.73;;;1.30;;
80823;SDS011;70228;59.128;37.936;2023-05-29T11:32:46;18.20;;;1.65;;
80823;SDS011;70228;59.128;37.936;2023-05-29T11:35:12;6.35;;;1.30;;
80823;SDS011;70228;59.128;37.936;2023-05-29T11:37:40;5.95;;;1.38;;
80823;SDS011;70228;59.128;37.936;2023-05-29T11:40:11;5.18;;;1.30;;
80823;SDS011;70228;59.128;37.936;2023-05-29T11:42:41;6.50;;;1.20;;
80823;SDS011;70228;59.128;37.936;2023-05-29T11:48:02;5.20;;;1.20;;
80823;SDS011;70228;59.128;37.936;2023-05-29T11:50:29;4.53;;;1.40;;
80823;SDS011;70228;59.128;37.936;2023-05-29T11:52:57;7.20;;;1.70;;
80823;SDS011;70228;59.128;37.936;2023-05-29T11:55:25;5.23;;;1.40;;
80823;SDS011;70228;59.128;37.936;2023-05-29T11:57:59;5.85;;;1.52;;
80823;SDS011;70228;59.128;37.936;2023-05-29T12:00:28;6.10;;;1.45;;
80823;SDS011;70228;59.128;37.936;2023-05-29T12:03:07;6.30;;;1.50;;
80823;SDS011;70228;59.128;37.936;2023-05-29T12:05:46;7.70;;;1.40;;
80823;SDS011;70228;59.128;37.936;2023-05-29T12:08:24;5.60;;;1.60;;
80823;SDS011;70228;59.128;37.936;2023-05-29T12:10:51;6.13;;;1.40;;
80823;SDS011;70228;59.128;37.936;2023-05-29T12:13:18;4.90;;;1.30;;
80823;SDS011;70228;59.128;37.936;2023-05-29T12:15:45;7.07;;;1.50;;
80823;SDS011;70228;59.128;37.936;2023-05-29T12:18:13;5.25;;;1.70;;
80823;SDS011;70228;59.128;37.936;2023-05-29T12:20:40;7.77;;;1.87;;
80823;SDS011;70228;59.128;37.936;2023-05-29T12:23:06;10.48;;;2.00;;
80823;SDS011;70228;59.128;37.936;2023-05-29T12:25:33;6.45;;;1.40;;
80823;SDS011;70228;59.128;37.936;2023-05-29T12:28:02;5.88;;;1.40;;
80823;SDS011;70228;59.128;37.936;2023-05-29T12:30:28;7.43;;;1.40;;
80823;SDS011;70228;59.128;37.936;2023-05-29T12:32:54;15.80;;;1.80;;
80823;SDS011;70228;59.128;37.936;2023-05-29T12:35:24;9.52;;;1.60;;
80823;SDS011;70228;59.128;37.936;2023-05-29T12:37:55;6.45;;;1.48;;
80823;SDS011;70228;59.128;37.936;2023-05-29T12:40:30;6.35;;;1.35;;
80823;SDS011;70228;59.128;37.936;2023-05-29T12:43:04;5.40;;;1.27;;
80823;SDS011;70228;59.128;37.936;2023-05-29T12:45:32;7.33;;;1.60;;
80823;SDS011;70228;59.128;37.936;2023-05-29T12:48:00;8.35;;;1.70;;
80823;SDS011;70228;59.128;37.936;2023-05-29T12:50:31;5.82;;;1.30;;
80823;SDS011;70228;59.128;37.936;2023-05-29T12:53:05;5.45;;;1.45;;
80823;SDS011;70228;59.128;37.936;2023-05-29T12:55:33;8.77;;;1.50;;
80823;SDS011;70228;59.128;37.936;2023-05-29T12:58:04;15.13;;;1.60;;
80823;SDS011;70228;59.128;37.936;2023-05-29T13:00:33;6.80;;;1.40;;
80823;SDS011;70228;59.128;37.936;2023-05-29T13:03:00;4.93;;;1.45;;
80823;SDS011;70228;59.128;37.936;2023-05-29T13:05:27;5.97;;;2.00;;
80823;SDS011;70228;59.128;37.936;2023-05-29T13:07:53;6.20;;;2.00;;
80823;SDS011;70228;59.128;37.936;2023-05-29T13:10:19;5.53;;;1.67;;
80823;SDS011;70228;59.128;37.936;2023-05-29T13:12:46;8.18;;;1.70;;
80823;SDS011;70228;59.128;37.936;2023-05-29T13:15:15;6.95;;;1.70;;
80823;SDS011;70228;59.128;37.936;2023-05-29T13:17:41;6.90;;;1.60;;
80823;SDS011;70228;59.128;37.936;2023-05-29T13:20:11;4.45;;;1.33;;
80823;SDS011;70228;59.128;37.936;2023-05-29T13:22:38;6.43;;;1.70;;
80823;SDS011;70228;59.128;37.936;2023-05-29T13:25:06;6.18;;;1.50;;
80823;SDS011;70228;59.128;37.936;2023-05-29T13:27:35;5.63;;;1.88;;
80823;SDS011;70228;59.128;37.936;2023-05-29T13:30:06;8.02;;;1.60;;
80823;SDS011;70228;59.128;37.936;2023-05-29T13:32:33;5.57;;;1.50;;
80823;SDS011;70228;59.128;37.936;2023-05-29T13:34:59;5.00;;;1.50;;
80823;SDS011;70228;59.128;37.936;2023-05-29T13:37:25;7.68;;;1.60;;
80823;SDS011;70228;59.128;37.936;2023-05-29T13:39:53;7.45;;;1.77;;
80823;SDS011;70228;59.128;37.936;2023-05-29T13:42:19;6.75;;;1.52;;
80823;SDS011;70228;59.128;37.936;2023-05-29T13:44:46;6.28;;;1.80;;
80823;SDS011;70228;59.128;37.936;2023-05-29T13:47:13;11.07;;;1.80;;
80823;SDS011;70228;59.128;37.936;2023-05-29T13:49:40;7.32;;;1.60;;
80823;SDS011;70228;59.128;37.936;2023-05-29T13:52:06;12.13;;;1.73;;
80823;SDS011;70228;59.128;37.936;2023-05-29T13:54:32;6.38;;;1.30;;
80823;SDS011;70228;59.128;37.936;2023-05-29T13:57:05;6.20;;;1.52;;
80823;SDS011;70228;59.128;37.936;2023-05-29T13:59:34;8.07;;;1.67;;
80823;SDS011;70228;59.128;37.936;2023-05-29T14:02:02;5.95;;;1.67;;
80823;SDS011;70228;59.128;37.936;2023-05-29T14:04:29;10.02;;;3.63;;
80823;SDS011;70228;59.128;37.936;2023-05-29T14:06:56;10.23;;;2.50;;
80823;SDS011;70228;59.128;37.936;2023-05-29T14:09:23;7.32;;;1.80;;
80823;SDS011;70228;59.128;37.936;2023-05-29T14:11:58;8.60;;;2.13;;
80823;SDS011;70228;59.128;37.936;2023-05-29T14:14:25;8.63;;;1.70;;
80823;SDS011;70228;59.128;37.936;2023-05-29T14:16:51;8.93;;;1.90;;
80823;SDS011;70228;59.128;37.936;2023-05-29T14:19:21;6.40;;;1.70;;
80823;SDS011;70228;59.128;37.936;2023-05-29T14:21:48;6.30;;;1.65;;
80823;SDS011;70228;59.128;37.936;2023-05-29T14:24:15;5.70;;;1.87;;
80823;SDS011;70228;59.128;37.936;2023-05-29T14:26:43;11.82;;;2.20;;
80823;SDS011;70228;59.128;37.936;2023-05-29T14:29:12;6.80;;;1.80;;
80823;SDS011;70228;59.128;37.936;2023-05-29T14:31:42;9.38;;;2.08;;
80823;SDS011;70228;59.128;37.936;2023-05-29T14:34:09;7.00;;;1.92;;
80823;SDS011;70228;59.128;37.936;2023-05-29T14:36:36;5.83;;;1.67;;
80823;SDS011;70228;59.128;37.936;2023-05-29T14:39:03;6.25;;;1.85;;
80823;SDS011;70228;59.128;37.936;2023-05-29T14:41:30;7.85;;;2.00;;
80823;SDS011;70228;59.128;37.936;2023-05-29T14:43:56;10.82;;;2.50;;
80823;SDS011;70228;59.128;37.936;2023-05-29T14:46:25;7.57;;;2.13;;
80823;SDS011;70228;59.128;37.936;2023-05-29T14:48:52;9.80;;;2.00;;
80823;SDS011;70228;59.128;37.936;2023-05-29T14:51:19;7.82;;;2.30;;
80823;SDS011;70228;59.128;37.936;2023-05-29T14:53:46;7.30;;;2.00;;
80823;SDS011;70228;59.128;37.936;2023-05-29T14:56:12;6.22;;;2.10;;
80823;SDS011;70228;59.128;37.936;2023-05-29T14:58:38;10.95;;;2.58;;
80823;SDS011;70228;59.128;37.936;2023-05-29T15:01:04;5.80;;;2.00;;
80823;SDS011;70228;59.128;37.936;2023-05-29T15:03:31;8.35;;;2.20;;
80823;SDS011;70228;59.128;37.936;2023-05-29T15:05:57;8.05;;;2.10;;